createdAt,value
2017-07-24T00:00:54.017Z,1013.19
2017-07-24T00:02:16.163Z,1013.2
2017-07-24T00:03:37.719Z,1013.19
2017-07-24T00:05:00.130Z,1013.21
2017-07-24T00:06:22.269Z,1013.19
2017-07-24T00:07:44.434Z,1013.18
2017-07-24T00:09:06.667Z,1013.12
2017-07-24T00:10:29.191Z,1013.12
2017-07-24T00:11:51.209Z,1013.09
2017-07-24T00:13:13.090Z,1013.05
2017-07-24T00:14:35.016Z,1013.05
2017-07-24T00:15:57.759Z,1013.1
2017-07-24T00:17:20.364Z,1013.09
2017-07-24T00:18:42.518Z,1013.13
2017-07-24T00:20:04.677Z,1013.11
2017-07-24T00:21:26.779Z,1013.12
2017-07-24T00:22:49.248Z,1013.09
2017-07-24T00:24:11.139Z,1013.09
2017-07-24T00:25:32.670Z,1013.09
2017-07-24T00:26:55.579Z,1013.11
2017-07-24T00:28:17.787Z,1013.1
2017-07-24T00:29:38.987Z,1013.09
2017-07-24T00:31:01.133Z,1013.07
2017-07-24T00:32:23.580Z,1013.06
2017-07-24T00:33:46.198Z,1013.08
2017-07-24T00:35:08.385Z,1013.06
2017-07-24T00:36:30.207Z,1013.01
2017-07-24T00:37:52.208Z,1013.02
2017-07-24T00:39:13.717Z,1012.98
2017-07-24T00:40:35.871Z,1012.92
2017-07-24T00:41:57.388Z,1012.89
2017-07-24T00:43:19.877Z,1012.91
2017-07-24T00:44:41.769Z,1012.92
2017-07-24T00:46:03.990Z,1012.89
2017-07-24T00:47:26.146Z,1012.86
2017-07-24T00:48:48.600Z,1012.86
2017-07-24T00:50:10.740Z,1012.83
2017-07-24T00:51:32.063Z,1012.82
2017-07-24T00:52:53.886Z,1012.75
2017-07-24T00:54:16.022Z,1012.79
2017-07-24T00:55:38.188Z,1012.82
2017-07-24T00:56:59.402Z,1012.79
2017-07-24T00:58:21.889Z,1012.75
2017-07-24T00:59:44.408Z,1012.74
2017-07-24T01:01:06.876Z,1012.71
2017-07-24T01:02:29.078Z,1012.66
2017-07-24T01:03:50.897Z,1012.63
2017-07-24T01:05:13.048Z,1012.63
2017-07-24T01:06:34.638Z,1012.63
2017-07-24T01:07:56.508Z,1012.63
2017-07-24T01:09:17.396Z,1012.62
2017-07-24T01:10:39.895Z,1012.63
2017-07-24T01:12:02.045Z,1012.57
2017-07-24T01:13:23.969Z,1012.53
2017-07-24T01:14:46.431Z,1012.51
2017-07-24T01:16:08.548Z,1012.48
2017-07-24T01:17:29.750Z,1012.53
2017-07-24T01:18:51.278Z,1012.48
2017-07-24T01:20:13.107Z,1012.49
2017-07-24T01:21:35.568Z,1012.51
2017-07-24T01:22:57.401Z,1012.54
2017-07-24T01:24:19.221Z,1012.5
2017-07-24T01:25:41.048Z,1012.48
2017-07-24T01:27:03.450Z,1012.48
2017-07-24T01:28:25.341Z,1012.42
2017-07-24T01:29:46.852Z,1012.44
2017-07-24T01:31:09.001Z,1012.42
2017-07-24T01:32:31.508Z,1012.44
2017-07-24T01:33:53.397Z,1012.37
2017-07-24T01:35:15.539Z,1012.4
2017-07-24T01:36:37.358Z,1012.46
2017-07-24T01:37:59.750Z,1012.43
2017-07-24T01:39:22.218Z,1012.43
2017-07-24T01:40:44.422Z,1012.42
2017-07-24T01:42:06.268Z,1012.45
2017-07-24T01:43:28.103Z,1012.45
2017-07-24T01:44:50.564Z,1012.44
2017-07-24T01:46:12.077Z,1012.45
2017-07-24T01:47:34.338Z,1012.45
2017-07-24T01:48:57.013Z,1012.46
2017-07-24T01:50:18.537Z,1012.42
2017-07-24T01:51:40.707Z,1012.4
2017-07-24T01:53:02.958Z,1012.32
2017-07-24T01:54:25.659Z,1012.33
2017-07-24T01:55:47.828Z,1012.31
2017-07-24T01:57:10.075Z,1012.28
2017-07-24T01:58:31.895Z,1012.22
2017-07-24T01:59:54.610Z,1012.19
2017-07-24T02:01:16.756Z,1012.16
2017-07-24T02:02:38.356Z,1012.14
2017-07-24T02:03:59.873Z,1012.15
2017-07-24T02:05:21.945Z,1012.1
2017-07-24T02:06:44.198Z,1012.11
2017-07-24T02:08:06.374Z,1012.1
2017-07-24T02:09:28.565Z,1012.12
2017-07-24T02:10:50.763Z,1012.08
2017-07-24T02:12:12.910Z,1012.08
2017-07-24T02:13:35.452Z,1012.08
2017-07-24T02:14:56.959Z,1012.14
2017-07-24T02:16:19.414Z,1012.04
2017-07-24T02:17:41.887Z,1012.05
2017-07-24T02:19:03.748Z,1012.03
2017-07-24T02:20:25.260Z,1012.03
2017-07-24T02:21:47.038Z,1012.03
2017-07-24T02:23:08.918Z,1012.02
2017-07-24T02:24:30.428Z,1012.02
2017-07-24T02:25:52.567Z,1011.98
2017-07-24T02:27:14.643Z,1012.01
2017-07-24T02:28:37.156Z,1012.04
2017-07-24T02:29:58.356Z,1012
2017-07-24T02:31:20.249Z,1012.04
2017-07-24T02:32:42.719Z,1011.99
2017-07-24T02:34:04.987Z,1012.02
2017-07-24T02:35:27.148Z,1011.99
2017-07-24T02:36:48.750Z,1011.97
2017-07-24T02:38:10.908Z,1011.97
2017-07-24T02:39:32.720Z,1011.92
2017-07-24T02:40:54.968Z,1011.91
2017-07-24T02:42:16.884Z,1011.86
2017-07-24T02:43:39.599Z,1011.83
2017-07-24T02:45:01.767Z,1011.85
2017-07-24T02:46:23.449Z,1011.83
2017-07-24T02:47:45.936Z,1011.84
2017-07-24T02:49:08.127Z,1011.86
2017-07-24T02:50:29.966Z,1011.85
2017-07-24T02:51:52.146Z,1011.86
2017-07-24T02:53:14.437Z,1011.83
2017-07-24T02:54:36.628Z,1011.78
2017-07-24T02:55:58.566Z,1011.8
2017-07-24T02:57:20.437Z,1011.81
2017-07-24T02:58:42.578Z,1011.78
2017-07-24T03:00:04.997Z,1011.73
2017-07-24T03:01:26.515Z,1011.77
2017-07-24T03:02:48.047Z,1011.73
2017-07-24T03:04:08.921Z,1011.75
2017-07-24T03:05:30.837Z,1011.66
2017-07-24T03:06:52.368Z,1011.69
2017-07-24T03:08:13.895Z,1011.71
2017-07-24T03:09:35.727Z,1011.72
2017-07-24T03:10:57.191Z,1011.68
2017-07-24T03:12:19.353Z,1011.68
2017-07-24T03:13:41.247Z,1011.65
2017-07-24T03:15:03.427Z,1011.63
2017-07-24T03:16:25.297Z,1011.56
2017-07-24T03:17:47.768Z,1011.57
2017-07-24T03:19:09.677Z,1011.56
2017-07-24T03:20:31.078Z,1011.58
2017-07-24T03:21:53.218Z,1011.55
2017-07-24T03:23:14.736Z,1011.58
2017-07-24T03:24:35.636Z,1011.55
2017-07-24T03:25:57.477Z,1011.6
2017-07-24T03:27:19.969Z,1011.59
2017-07-24T03:28:42.524Z,1011.6
2017-07-24T03:30:04.818Z,1011.53
2017-07-24T03:31:27.142Z,1011.54
2017-07-24T03:32:49.267Z,1011.59
2017-07-24T03:34:11.427Z,1011.53
2017-07-24T03:35:33.272Z,1011.56
2017-07-24T03:36:55.439Z,1011.56
2017-07-24T03:38:17.966Z,1011.55
2017-07-24T03:39:40.128Z,1011.6
2017-07-24T03:41:01.429Z,1011.55
2017-07-24T03:42:23.577Z,1011.64
2017-07-24T03:43:46.028Z,1011.58
2017-07-24T03:45:08.177Z,1011.6
2017-07-24T03:46:30.337Z,1011.54
2017-07-24T03:47:52.179Z,1011.52
2017-07-24T03:49:14.598Z,1011.49
2017-07-24T03:50:36.586Z,1011.45
2017-07-24T03:51:58.108Z,1011.43
2017-07-24T03:53:19.624Z,1011.47
2017-07-24T03:54:42.014Z,1011.43
2017-07-24T03:56:03.857Z,1011.43
2017-07-24T03:57:25.418Z,1011.43
2017-07-24T03:58:47.258Z,1011.39
2017-07-24T04:00:09.664Z,1011.4
2017-07-24T04:01:31.825Z,1011.35
2017-07-24T04:02:53.337Z,1011.34
2017-07-24T04:04:15.557Z,1011.38
2017-07-24T04:05:37.957Z,1011.31
2017-07-24T04:07:00.686Z,1011.34
2017-07-24T04:08:22.909Z,1011.3
2017-07-24T04:09:44.910Z,1011.3
2017-07-24T04:11:07.377Z,1011.23
2017-07-24T04:12:29.218Z,1011.21
2017-07-24T04:13:51.182Z,1011.16
2017-07-24T04:15:13.036Z,1011.12
2017-07-24T04:16:35.557Z,1011.14
2017-07-24T04:17:57.388Z,1011.14
2017-07-24T04:19:19.947Z,1011.09
2017-07-24T04:20:42.187Z,1011.09
2017-07-24T04:22:04.308Z,1011.09
2017-07-24T04:23:26.457Z,1011.06
2017-07-24T04:24:48.284Z,1011.06
2017-07-24T04:26:10.105Z,1011.1
2017-07-24T04:27:31.985Z,1011.15
2017-07-24T04:28:53.815Z,1011.16
2017-07-24T04:30:15.328Z,1011.2
2017-07-24T04:31:37.156Z,1011.23
2017-07-24T04:32:59.617Z,1011.2
2017-07-24T04:34:22.089Z,1011.21
2017-07-24T04:35:44.309Z,1011.21
2017-07-24T04:37:06.241Z,1011.23
2017-07-24T04:38:28.335Z,1011.24
2017-07-24T04:39:50.518Z,1011.18
2017-07-24T04:41:12.347Z,1011.17
2017-07-24T04:42:34.198Z,1011.15
2017-07-24T04:43:56.096Z,1011.19
2017-07-24T04:45:17.657Z,1011.2
2017-07-24T04:46:39.827Z,1011.22
2017-07-24T04:48:01.453Z,1011.22
2017-07-24T04:49:23.536Z,1011.21
2017-07-24T04:50:45.048Z,1011.19
2017-07-24T04:52:06.558Z,1011.17
2017-07-24T04:53:28.727Z,1011.18
2017-07-24T04:54:51.279Z,1011.2
2017-07-24T04:56:13.135Z,1011.2
2017-07-24T04:57:35.359Z,1011.25
2017-07-24T04:58:57.828Z,1011.24
2017-07-24T05:00:20.285Z,1011.27
2017-07-24T05:01:42.119Z,1011.26
2017-07-24T05:03:03.967Z,1011.27
2017-07-24T05:04:26.121Z,1011.22
2017-07-24T05:05:48.277Z,1011.17
2017-07-24T05:07:10.128Z,1011.19
2017-07-24T05:08:32.276Z,1011.23
2017-07-24T05:09:53.808Z,1011.2
2017-07-24T05:11:16.276Z,1011.27
2017-07-24T05:12:38.418Z,1011.27
2017-07-24T05:14:00.009Z,1011.26
2017-07-24T05:15:22.157Z,1011.22
2017-07-24T05:16:44.615Z,1011.18
2017-07-24T05:18:06.458Z,1011.15
2017-07-24T05:19:28.936Z,1011.18
2017-07-24T05:20:50.747Z,1011.17
2017-07-24T05:22:12.856Z,1011.19
2017-07-24T05:23:34.696Z,1011.21
2017-07-24T05:24:56.206Z,1011.22
2017-07-24T05:26:18.204Z,1011.21
2017-07-24T05:27:40.309Z,1011.23
2017-07-24T05:29:02.490Z,1011.2
2017-07-24T05:30:23.696Z,1011.24
2017-07-24T05:31:45.547Z,1011.21
2017-07-24T05:33:08.013Z,1011.18
2017-07-24T05:34:29.857Z,1011.13
2017-07-24T05:35:51.997Z,1011.12
2017-07-24T05:37:13.849Z,1011.13
2017-07-24T05:38:36.246Z,1011.07
2017-07-24T05:39:58.447Z,1011.14
2017-07-24T05:41:20.301Z,1011.16
2017-07-24T05:42:42.436Z,1011.17
2017-07-24T05:44:04.228Z,1011.22
2017-07-24T05:45:26.463Z,1011.22
2017-07-24T05:46:48.318Z,1011.26
2017-07-24T05:48:10.507Z,1011.28
2017-07-24T05:49:33.073Z,1011.27
2017-07-24T05:50:54.905Z,1011.26
2017-07-24T05:52:16.734Z,1011.27
2017-07-24T05:53:38.997Z,1011.21
2017-07-24T05:55:01.157Z,1011.22
2017-07-24T05:56:23.005Z,1011.16
2017-07-24T05:57:44.748Z,1011.15
2017-07-24T05:59:06.896Z,1011.18
2017-07-24T06:00:28.772Z,1011.24
2017-07-24T06:01:50.927Z,1011.32
2017-07-24T06:03:13.171Z,1011.28
2017-07-24T06:04:35.346Z,1011.4
2017-07-24T06:05:57.457Z,1011.4
2017-07-24T06:07:19.292Z,1011.39
2017-07-24T06:08:41.445Z,1011.46
2017-07-24T06:10:03.288Z,1011.49
2017-07-24T06:11:25.588Z,1011.46
2017-07-24T06:12:48.037Z,1011.49
2017-07-24T06:14:10.518Z,1011.43
2017-07-24T06:15:32.748Z,1011.36
2017-07-24T06:16:54.627Z,1011.35
2017-07-24T06:18:16.457Z,1011.33
2017-07-24T06:19:38.655Z,1011.3
2017-07-24T06:21:01.121Z,1011.36
2017-07-24T06:22:23.858Z,1011.32
2017-07-24T06:23:46.094Z,1011.3
2017-07-24T06:25:07.317Z,1011.29
2017-07-24T06:26:29.168Z,1011.31
2017-07-24T06:27:51.576Z,1011.34
2017-07-24T06:29:13.725Z,1011.37
2017-07-24T06:30:35.896Z,1011.35
2017-07-24T06:31:57.756Z,1011.35
2017-07-24T06:33:20.217Z,1011.34
2017-07-24T06:34:42.447Z,1011.38
2017-07-24T06:36:04.695Z,1011.4
2017-07-24T06:37:26.594Z,1011.38
2017-07-24T06:38:48.448Z,1011.4
2017-07-24T06:40:10.614Z,1011.39
2017-07-24T06:41:32.843Z,1011.36
2017-07-24T06:42:54.695Z,1011.33
2017-07-24T06:44:17.128Z,1011.35
2017-07-24T06:45:38.997Z,1011.3
2017-07-24T06:47:01.149Z,1011.26
2017-07-24T06:48:23.311Z,1011.3
2017-07-24T06:49:45.769Z,1011.27
2017-07-24T06:51:07.947Z,1011.28
2017-07-24T06:52:30.102Z,1011.32
2017-07-24T06:53:51.932Z,1011.28
2017-07-24T06:55:14.075Z,1011.28
2017-07-24T06:56:35.687Z,1011.28
2017-07-24T06:57:57.535Z,1011.33
2017-07-24T06:59:19.817Z,1011.34
2017-07-24T07:00:42.307Z,1011.33
2017-07-24T07:02:04.915Z,1011.3
2017-07-24T07:03:26.803Z,1011.3
2017-07-24T07:04:49.361Z,1011.27
2017-07-24T07:06:11.353Z,1011.29
2017-07-24T07:07:33.968Z,1011.27
2017-07-24T07:08:56.147Z,1011.28
2017-07-24T07:10:18.324Z,1011.27
2017-07-24T07:11:40.797Z,1011.28
2017-07-24T07:13:02.964Z,1011.25
2017-07-24T07:14:24.816Z,1011.23
2017-07-24T07:15:47.074Z,1011.25
2017-07-24T07:17:09.491Z,1011.23
2017-07-24T07:18:31.668Z,1011.22
2017-07-24T07:19:53.835Z,1011.22
2017-07-24T07:21:15.736Z,1011.17
2017-07-24T07:22:38.157Z,1011.18
2017-07-24T07:24:00.351Z,1011.23
2017-07-24T07:25:22.518Z,1011.19
2017-07-24T07:26:44.361Z,1011.15
2017-07-24T07:28:06.550Z,1011.18
2017-07-24T07:29:28.726Z,1011.14
2017-07-24T07:30:50.943Z,1011.12
2017-07-24T07:32:13.094Z,1011.12
2017-07-24T07:33:35.671Z,1011.07
2017-07-24T07:34:57.556Z,1011.03
2017-07-24T07:36:19.087Z,1011
2017-07-24T07:37:41.247Z,1011
2017-07-24T07:39:02.757Z,1011.07
2017-07-24T07:40:24.071Z,1011.03
2017-07-24T07:41:46.664Z,1011.05
2017-07-24T07:43:09.152Z,1011.11
2017-07-24T07:44:32.071Z,1011.1
2017-07-24T07:45:53.965Z,1011.11
2017-07-24T07:47:16.499Z,1011.14
2017-07-24T07:48:38.075Z,1011.15
2017-07-24T07:49:59.894Z,1011.14
2017-07-24T07:51:22.044Z,1011.1
2017-07-24T07:52:44.966Z,1011.13
2017-07-24T07:54:06.495Z,1011.14
2017-07-24T07:55:28.587Z,1011.17
2017-07-24T07:56:50.760Z,1011.16
2017-07-24T07:58:12.296Z,1011.23
2017-07-24T07:59:34.466Z,1011.18
2017-07-24T08:00:56.863Z,1011.15
2017-07-24T08:02:19.041Z,1011.2
2017-07-24T08:03:41.536Z,1011.14
2017-07-24T08:05:03.826Z,1011.12
2017-07-24T08:06:26.249Z,1011.12
2017-07-24T08:07:48.127Z,1011.13
2017-07-24T08:09:10.353Z,1011.15
2017-07-24T08:10:31.683Z,1011.14
2017-07-24T08:11:54.147Z,1011.18
2017-07-24T08:13:16.008Z,1011.18
2017-07-24T08:14:38.465Z,1011.16
2017-07-24T08:16:00.950Z,1011.17
2017-07-24T08:17:22.735Z,1011.15
2017-07-24T08:18:44.288Z,1011.15
2017-07-24T08:20:05.989Z,1011.18
2017-07-24T08:21:27.222Z,1011.16
2017-07-24T08:22:49.626Z,1011.15
2017-07-24T08:24:11.460Z,1011.13
2017-07-24T08:25:33.413Z,1011.1
2017-07-24T08:26:55.892Z,1011.18
2017-07-24T08:28:18.541Z,1011.16
2017-07-24T08:29:40.068Z,1011.2
2017-07-24T08:31:02.259Z,1011.21
2017-07-24T08:32:23.781Z,1011.2
2017-07-24T08:33:46.292Z,1011.19
2017-07-24T08:35:08.155Z,1011.24
2017-07-24T08:36:30.343Z,1011.21
2017-07-24T08:37:52.822Z,1011.23
2017-07-24T08:39:15.056Z,1011.22
2017-07-24T08:40:36.649Z,1011.25
2017-07-24T08:41:59.154Z,1011.18
2017-07-24T08:43:21.003Z,1011.25
2017-07-24T08:44:43.617Z,1011.2
2017-07-24T08:46:05.779Z,1011.22
2017-07-24T08:47:27.318Z,1011.2
2017-07-24T08:48:49.513Z,1011.23
2017-07-24T08:50:11.673Z,1011.23
2017-07-24T08:51:33.825Z,1011.24
2017-07-24T08:52:55.375Z,1011.19
2017-07-24T08:54:17.529Z,1011.23
2017-07-24T08:55:39.626Z,1011.22
2017-07-24T08:57:02.135Z,1011.23
2017-07-24T08:58:24.637Z,1011.26
2017-07-24T08:59:46.805Z,1011.27
2017-07-24T09:01:08.942Z,1011.32
2017-07-24T09:02:30.788Z,1011.33
2017-07-24T09:03:52.684Z,1011.33
2017-07-24T09:05:14.554Z,1011.31
2017-07-24T09:06:36.660Z,1011.37
2017-07-24T09:07:58.869Z,1011.36
2017-07-24T09:09:20.725Z,1011.39
2017-07-24T09:10:42.589Z,1011.39
2017-07-24T09:12:05.315Z,1011.39
2017-07-24T09:13:27.244Z,1011.39
2017-07-24T09:14:49.773Z,1011.38
2017-07-24T09:16:11.952Z,1011.41
2017-07-24T09:17:34.761Z,1011.42
2017-07-24T09:18:57.035Z,1011.45
2017-07-24T09:20:19.313Z,1011.47
2017-07-24T09:21:41.154Z,1011.46
2017-07-24T09:23:03.088Z,1011.43
2017-07-24T09:24:25.294Z,1011.4
2017-07-24T09:25:47.474Z,1011.4
2017-07-24T09:27:09.945Z,1011.41
2017-07-24T09:28:32.866Z,1011.4
2017-07-24T09:29:55.036Z,1011.44
2017-07-24T09:31:17.527Z,1011.38
2017-07-24T09:32:39.096Z,1011.4
2017-07-24T09:34:00.883Z,1011.4
2017-07-24T09:35:23.045Z,1011.38
2017-07-24T09:36:45.212Z,1011.38
2017-07-24T09:38:07.565Z,1011.35
2017-07-24T09:39:28.764Z,1011.33
2017-07-24T09:40:50.910Z,1011.36
2017-07-24T09:42:12.760Z,1011.36
2017-07-24T09:43:35.036Z,1011.36
2017-07-24T09:44:56.509Z,1011.35
2017-07-24T09:46:18.994Z,1011.3
2017-07-24T09:47:40.536Z,1011.31
2017-07-24T09:49:02.443Z,1011.32
2017-07-24T09:50:25.161Z,1011.29
2017-07-24T09:51:47.349Z,1011.33
2017-07-24T09:53:09.505Z,1011.34
2017-07-24T09:54:31.974Z,1011.34
2017-07-24T09:55:54.126Z,1011.37
2017-07-24T09:57:16.611Z,1011.41
2017-07-24T09:58:38.147Z,1011.39
2017-07-24T10:00:00.616Z,1011.39
2017-07-24T10:01:22.774Z,1011.38
2017-07-24T10:02:44.638Z,1011.34
2017-07-24T10:04:06.494Z,1011.39
2017-07-24T10:05:28.708Z,1011.32
2017-07-24T10:06:51.119Z,1011.32
2017-07-24T10:08:13.005Z,1011.34
2017-07-24T10:09:35.201Z,1011.3
2017-07-24T10:10:57.415Z,1011.3
2017-07-24T10:12:19.590Z,1011.33
2017-07-24T10:13:41.637Z,1011.29
2017-07-24T10:15:03.487Z,1011.32
2017-07-24T10:16:25.669Z,1011.28
2017-07-24T10:17:48.405Z,1011.29
2017-07-24T10:19:10.886Z,1011.29
2017-07-24T10:20:33.133Z,1011.3
2017-07-24T10:21:55.635Z,1011.3
2017-07-24T10:23:18.082Z,1011.31
2017-07-24T10:24:40.207Z,1011.3
2017-07-24T10:26:02.496Z,1011.32
2017-07-24T10:27:24.673Z,1011.29
2017-07-24T10:28:46.804Z,1011.35
2017-07-24T10:30:08.335Z,1011.33
2017-07-24T10:31:30.212Z,1011.29
2017-07-24T10:32:52.067Z,1011.28
2017-07-24T10:34:14.525Z,1011.3
2017-07-24T10:35:36.700Z,1011.28
2017-07-24T10:36:58.893Z,1011.3
2017-07-24T10:38:21.416Z,1011.29
2017-07-24T10:39:43.582Z,1011.31
2017-07-24T10:41:05.761Z,1011.29
2017-07-24T10:42:28.377Z,1011.27
2017-07-24T10:43:50.232Z,1011.21
2017-07-24T10:45:12.331Z,1011.17
2017-07-24T10:46:34.284Z,1011.18
2017-07-24T10:47:56.456Z,1011.17
2017-07-24T10:49:18.639Z,1011.14
2017-07-24T10:50:40.978Z,1011.18
2017-07-24T10:52:03.155Z,1011.15
2017-07-24T10:53:25.647Z,1011.21
2017-07-24T10:54:47.792Z,1011.27
2017-07-24T10:56:10.673Z,1011.23
2017-07-24T10:57:32.847Z,1011.25
2017-07-24T10:58:55.500Z,1011.26
2017-07-24T11:00:17.710Z,1011.24
2017-07-24T11:01:40.666Z,1011.22
2017-07-24T11:03:03.147Z,1011.26
2017-07-24T11:04:24.993Z,1011.19
2017-07-24T11:05:46.832Z,1011.21
2017-07-24T11:07:09.226Z,1011.16
2017-07-24T11:08:31.148Z,1011.17
2017-07-24T11:09:53.326Z,1011.18
2017-07-24T11:11:15.499Z,1011.24
2017-07-24T11:12:38.246Z,1011.29
2017-07-24T11:14:00.465Z,1011.34
2017-07-24T11:15:22.326Z,1011.3
2017-07-24T11:16:44.469Z,1011.32
2017-07-24T11:18:06.560Z,1011.31
2017-07-24T11:19:28.424Z,1011.29
2017-07-24T11:20:50.795Z,1011.26
2017-07-24T11:22:13.281Z,1011.29
2017-07-24T11:23:36.150Z,1011.26
2017-07-24T11:24:58.133Z,1011.23
2017-07-24T11:26:20.357Z,1011.27
2017-07-24T11:27:42.558Z,1011.2
2017-07-24T11:29:05.328Z,1011.21
2017-07-24T11:30:27.196Z,1011.26
2017-07-24T11:31:49.427Z,1011.24
2017-07-24T11:33:11.596Z,1011.28
2017-07-24T11:34:33.995Z,1011.24
2017-07-24T11:35:55.850Z,1011.25
2017-07-24T11:37:18.049Z,1011.24
2017-07-24T11:38:40.636Z,1011.22
2017-07-24T11:40:03.413Z,1011.21
2017-07-24T11:41:25.903Z,1011.21
2017-07-24T11:42:47.851Z,1011.2
2017-07-24T11:44:09.393Z,1011.23
2017-07-24T11:45:31.554Z,1011.23
2017-07-24T11:46:53.526Z,1011.23
2017-07-24T11:48:15.391Z,1011.22
2017-07-24T11:49:37.589Z,1011.22
2017-07-24T11:51:00.502Z,1011.18
2017-07-24T11:52:22.330Z,1011.17
2017-07-24T11:53:44.828Z,1011.16
2017-07-24T11:55:07.349Z,1011.16
2017-07-24T11:56:29.919Z,1011.13
2017-07-24T11:57:51.762Z,1011.15
2017-07-24T11:59:14.232Z,1011.15
2017-07-24T12:00:36.095Z,1011.17
2017-07-24T12:01:58.564Z,1011.15
2017-07-24T12:03:20.444Z,1011.14
2017-07-24T12:04:42.314Z,1011.16
2017-07-24T12:06:04.310Z,1011.16
2017-07-24T12:07:27.047Z,1011.15
2017-07-24T12:08:48.916Z,1011.06
2017-07-24T12:10:11.109Z,1011.06
2017-07-24T12:11:32.970Z,1011.07
2017-07-24T12:12:54.888Z,1011.01
2017-07-24T12:14:17.436Z,1011.01
2017-07-24T12:15:39.592Z,1011.02
2017-07-24T12:17:01.771Z,1011.02
2017-07-24T12:18:24.287Z,1011.03
2017-07-24T12:19:45.936Z,1011.03
2017-07-24T12:21:08.124Z,1011.05
2017-07-24T12:22:29.990Z,1011.02
2017-07-24T12:23:52.415Z,1011.06
2017-07-24T12:25:14.294Z,1011.02
2017-07-24T12:26:36.452Z,1011.07
2017-07-24T12:27:58.858Z,1011.03
2017-07-24T12:29:21.308Z,1011.03
2017-07-24T12:30:43.804Z,1010.97
2017-07-24T12:32:05.974Z,1010.99
2017-07-24T12:33:28.189Z,1011.02
2017-07-24T12:34:50.663Z,1011.01
2017-07-24T12:36:12.942Z,1010.97
2017-07-24T12:37:35.121Z,1011.02
2017-07-24T12:38:56.962Z,1011
2017-07-24T12:40:19.751Z,1011.04
2017-07-24T12:41:41.925Z,1011.04
2017-07-24T12:43:04.164Z,1011
2017-07-24T12:44:25.407Z,1010.97
2017-07-24T12:45:47.865Z,1010.99
2017-07-24T12:47:10.428Z,1010.97
2017-07-24T12:48:32.263Z,1010.91
2017-07-24T12:49:54.525Z,1010.95
2017-07-24T12:51:17.095Z,1010.9
2017-07-24T12:52:39.257Z,1010.88
2017-07-24T12:54:01.445Z,1010.9
2017-07-24T12:55:23.996Z,1010.93
2017-07-24T12:56:46.192Z,1010.9
2017-07-24T12:58:08.155Z,1010.95
2017-07-24T12:59:29.766Z,1010.89
2017-07-24T13:00:51.644Z,1010.98
2017-07-24T13:02:14.395Z,1010.93
2017-07-24T13:03:36.894Z,1010.9
2017-07-24T13:04:59.392Z,1010.9
2017-07-24T13:06:20.935Z,1010.89
2017-07-24T13:07:43.386Z,1010.88
2017-07-24T13:09:05.897Z,1010.91
2017-07-24T13:10:28.141Z,1010.91
2017-07-24T13:11:50.297Z,1010.89
2017-07-24T13:13:12.705Z,1010.92
2017-07-24T13:14:34.905Z,1010.9
2017-07-24T13:15:57.508Z,1010.89
2017-07-24T13:17:19.378Z,1010.9
2017-07-24T13:18:41.874Z,1010.84
2017-07-24T13:20:03.795Z,1010.84
2017-07-24T13:21:25.334Z,1010.84
2017-07-24T13:22:47.499Z,1010.81
2017-07-24T13:24:09.283Z,1010.86
2017-07-24T13:25:31.448Z,1010.81
2017-07-24T13:26:53.326Z,1010.87
2017-07-24T13:28:15.934Z,1010.85
2017-07-24T13:29:38.094Z,1010.84
2017-07-24T13:31:00.696Z,1010.89
2017-07-24T13:32:22.534Z,1010.89
2017-07-24T13:33:44.085Z,1010.91
2017-07-24T13:35:06.188Z,1010.9
2017-07-24T13:36:27.719Z,1010.94
2017-07-24T13:37:49.905Z,1010.98
2017-07-24T13:39:11.782Z,1010.98
2017-07-24T13:40:34.402Z,1010.95
2017-07-24T13:41:56.014Z,1010.91
2017-07-24T13:43:18.173Z,1010.91
2017-07-24T13:44:40.722Z,1010.85
2017-07-24T13:46:02.685Z,1010.89
2017-07-24T13:47:25.318Z,1010.85
2017-07-24T13:48:47.841Z,1010.85
2017-07-24T13:50:10.057Z,1010.82
2017-07-24T13:51:32.261Z,1010.83
2017-07-24T13:52:54.445Z,1010.82
2017-07-24T13:54:16.923Z,1010.81
2017-07-24T13:55:39.101Z,1010.77
2017-07-24T13:57:01.550Z,1010.75
2017-07-24T13:58:23.764Z,1010.76
2017-07-24T13:59:46.280Z,1010.8
2017-07-24T14:01:08.147Z,1010.82
2017-07-24T14:02:30.874Z,1010.81
2017-07-24T14:03:53.025Z,1010.81
2017-07-24T14:05:15.226Z,1010.81
2017-07-24T14:06:37.409Z,1010.81
2017-07-24T14:08:00.046Z,1010.85
2017-07-24T14:09:21.717Z,1010.83
2017-07-24T14:10:44.233Z,1010.78
2017-07-24T14:12:06.414Z,1010.81
2017-07-24T14:13:28.208Z,1010.8
2017-07-24T14:14:50.405Z,1010.8
2017-07-24T14:16:12.577Z,1010.78
2017-07-24T14:17:35.067Z,1010.82
2017-07-24T14:18:57.879Z,1010.83
2017-07-24T14:20:19.753Z,1010.79
2017-07-24T14:21:42.284Z,1010.83
2017-07-24T14:23:03.835Z,1010.85
2017-07-24T14:24:26.570Z,1010.89
2017-07-24T14:25:48.757Z,1010.88
2017-07-24T14:27:10.641Z,1010.9
2017-07-24T14:28:32.976Z,1010.91
2017-07-24T14:29:55.777Z,1010.94
2017-07-24T14:31:17.631Z,1010.91
2017-07-24T14:32:40.120Z,1010.84
2017-07-24T14:34:02.304Z,1010.9
2017-07-24T14:35:25.033Z,1010.92
2017-07-24T14:36:46.917Z,1010.9
2017-07-24T14:38:09.446Z,1010.92
2017-07-24T14:39:31.734Z,1010.92
2017-07-24T14:40:54.156Z,1010.9
2017-07-24T14:42:16.280Z,1010.91
2017-07-24T14:43:38.461Z,1010.86
2017-07-24T14:45:01.076Z,1010.94
2017-07-24T14:46:23.879Z,1010.89
2017-07-24T14:47:46.366Z,1010.91
2017-07-24T14:49:08.559Z,1010.91
2017-07-24T14:50:30.897Z,1010.91
2017-07-24T14:51:53.103Z,1010.95
2017-07-24T14:53:15.704Z,1010.88
2017-07-24T14:54:37.631Z,1010.92
2017-07-24T14:56:00.238Z,1010.93
2017-07-24T14:57:23.151Z,1010.92
2017-07-24T14:58:45.773Z,1010.91
2017-07-24T15:00:08.002Z,1010.89
2017-07-24T15:01:29.909Z,1010.82
2017-07-24T15:02:52.405Z,1010.82
2017-07-24T15:04:14.276Z,1010.8
2017-07-24T15:05:36.486Z,1010.76
2017-07-24T15:06:58.659Z,1010.72
2017-07-24T15:08:20.776Z,1010.78
2017-07-24T15:09:43.284Z,1010.73
2017-07-24T15:11:05.230Z,1010.73
2017-07-24T15:12:27.805Z,1010.7
2017-07-24T15:13:49.941Z,1010.72
2017-07-24T15:15:12.128Z,1010.75
2017-07-24T15:16:34.616Z,1010.75
2017-07-24T15:17:56.447Z,1010.73
2017-07-24T15:19:18.885Z,1010.74
2017-07-24T15:20:40.733Z,1010.74
2017-07-24T15:22:03.216Z,1010.76
2017-07-24T15:23:25.454Z,1010.77
2017-07-24T15:24:48.288Z,1010.79
2017-07-24T15:26:10.504Z,1010.82
2017-07-24T15:27:32.694Z,1010.82
2017-07-24T15:28:54.881Z,1010.81
2017-07-24T15:30:17.166Z,1010.81
2017-07-24T15:31:39.693Z,1010.83
2017-07-24T15:33:01.849Z,1010.83
2017-07-24T15:34:24.029Z,1010.83
2017-07-24T15:35:46.298Z,1010.82
2017-07-24T15:37:08.771Z,1010.85
2017-07-24T15:38:30.729Z,1010.85
2017-07-24T15:39:52.580Z,1010.86
2017-07-24T15:41:15.390Z,1010.84
2017-07-24T15:42:37.620Z,1010.85
2017-07-24T15:43:59.826Z,1010.87
2017-07-24T15:45:22.103Z,1010.85
2017-07-24T15:46:44.745Z,1010.88
2017-07-24T15:48:07.036Z,1010.9
2017-07-24T15:49:29.231Z,1010.83
2017-07-24T15:50:50.776Z,1010.82
2017-07-24T15:52:13.292Z,1010.81
2017-07-24T15:53:35.786Z,1010.8
2017-07-24T15:54:58.258Z,1010.78
2017-07-24T15:56:19.797Z,1010.76
2017-07-24T15:57:41.965Z,1010.76
2017-07-24T15:59:04.476Z,1010.8
2017-07-24T16:00:26.336Z,1010.84
2017-07-24T16:01:48.900Z,1010.87
2017-07-24T16:03:11.627Z,1010.86
2017-07-24T16:04:33.672Z,1010.83
2017-07-24T16:05:55.854Z,1010.81
2017-07-24T16:07:18.348Z,1010.77
2017-07-24T16:08:40.784Z,1010.79
2017-07-24T16:10:02.979Z,1010.74
2017-07-24T16:11:25.473Z,1010.84
2017-07-24T16:12:48.306Z,1010.9
2017-07-24T16:14:10.716Z,1010.94
2017-07-24T16:15:33.010Z,1010.94
2017-07-24T16:16:55.185Z,1010.89
2017-07-24T16:18:17.370Z,1010.86
2017-07-24T16:19:40.106Z,1010.87
2017-07-24T16:21:02.277Z,1010.86
2017-07-24T16:22:24.786Z,1010.86
2017-07-24T16:23:47.278Z,1010.83
2017-07-24T16:25:10.140Z,1010.83
2017-07-24T16:26:32.087Z,1010.84
2017-07-24T16:27:54.062Z,1010.79
2017-07-24T16:29:16.225Z,1010.79
2017-07-24T16:30:39.041Z,1010.75
2017-07-24T16:32:01.668Z,1010.73
2017-07-24T16:33:23.849Z,1010.77
2017-07-24T16:34:46.018Z,1010.72
2017-07-24T16:36:08.875Z,1010.75
2017-07-24T16:37:31.035Z,1010.72